Terminal Aerodrome Forecast
Issued by NWS Blacksburg, VA

Current Version | Previous Version | Text Only | Print | Product List | Glossary Off
Versions: 1 2 3 4 5 6 7 8 9 10 11 12 13 14 15 16 17 18 19 20 21 22 23 24 25 26 27 28 29 30 31 32 33 34 35 36 37 38 39 40 41 42

000
FTUS41 KRNK 271135
TAFBLF
TAF
KBLF 271135Z 2712/2812 29003KT 2SM -SN BR BKN002 OVC020
      TEMPO 2712/2714 5SM -SHSN BKN007 OVC040
     FM271600 31012G19KT P6SM -SHSN OVC030
     FM280100 30011KT P6SM OVC050
     FM280500 29007KT P6SM -SHSN OVC025=

USA.gov is the U.S. government's official web portal to all federal, state and local government web resources and services.